createdAt,value
2018-08-03T00:00:48.413Z,5.17
2018-08-03T00:03:18.370Z,5.17
2018-08-03T00:05:47.949Z,4.10
2018-08-03T00:08:18.918Z,5.33
2018-08-03T00:10:48.662Z,5.07
2018-08-03T00:13:18.408Z,5.63
2018-08-03T00:15:48.203Z,5.10
2018-08-03T00:18:17.731Z,4.80
2018-08-03T00:20:47.056Z,4.77
2018-08-03T00:23:17.050Z,4.97
2018-08-03T00:25:47.600Z,4.20
2018-08-03T00:28:17.169Z,4.90
2018-08-03T00:30:47.225Z,5.27
2018-08-03T00:33:17.036Z,4.67
2018-08-03T00:35:46.421Z,5.40
2018-08-03T00:38:15.800Z,4.27
2018-08-03T00:40:45.261Z,5.40
2018-08-03T00:43:14.524Z,4.87
2018-08-03T00:45:43.825Z,5.73
2018-08-03T00:48:13.141Z,4.53
2018-08-03T00:50:42.338Z,5.17
2018-08-03T00:53:11.735Z,5.00
2018-08-03T00:55:40.985Z,4.67
2018-08-03T00:58:10.348Z,5.13
2018-08-03T01:00:39.687Z,5.30
2018-08-03T01:03:09.277Z,6.30
2018-08-03T01:05:38.594Z,4.80
2018-08-03T01:08:08.375Z,5.70
2018-08-03T01:10:37.647Z,5.90
2018-08-03T01:13:07.349Z,5.33
2018-08-03T01:15:37.601Z,4.47
2018-08-03T01:18:06.992Z,5.67
2018-08-03T01:20:36.948Z,7.17
2018-08-03T01:23:06.924Z,6.87
2018-08-03T01:25:36.192Z,8.37
2018-08-03T01:28:05.832Z,9.13
2018-08-03T01:30:35.161Z,10.10
2018-08-03T01:33:04.403Z,7.23
2018-08-03T01:35:33.860Z,8.57
2018-08-03T01:38:03.117Z,8.30
2018-08-03T01:40:32.450Z,7.47
2018-08-03T01:43:01.615Z,7.10
2018-08-03T01:45:30.945Z,7.60
2018-08-03T01:48:00.361Z,7.03
2018-08-03T01:50:30.399Z,7.00
2018-08-03T01:52:59.712Z,6.53
2018-08-03T01:55:28.972Z,7.37
2018-08-03T01:57:58.251Z,7.17
2018-08-03T02:00:27.718Z,7.27
2018-08-03T02:02:56.940Z,6.17
2018-08-03T02:05:26.921Z,5.83
2018-08-03T02:07:56.160Z,6.23
2018-08-03T02:10:25.415Z,7.13
2018-08-03T02:12:54.849Z,7.37
2018-08-03T02:15:24.303Z,7.37
2018-08-03T02:17:53.872Z,6.87
2018-08-03T02:20:23.209Z,6.97
2018-08-03T02:22:52.745Z,6.17
2018-08-03T02:25:22.140Z,6.73
2018-08-03T02:27:51.442Z,6.67
2018-08-03T02:30:20.982Z,5.93
2018-08-03T02:32:50.417Z,6.60
2018-08-03T02:35:20.137Z,6.60
2018-08-03T02:37:49.440Z,7.60
2018-08-03T02:40:18.926Z,6.50
2018-08-03T02:42:48.234Z,6.10
2018-08-03T02:45:17.640Z,6.13
2018-08-03T02:47:47.147Z,6.57
2018-08-03T02:50:17.406Z,6.57
2018-08-03T02:52:46.763Z,7.43
2018-08-03T02:55:16.160Z,8.03
2018-08-03T02:57:45.682Z,7.03
2018-08-03T03:00:15.095Z,6.10
2018-08-03T03:02:44.393Z,6.93
2018-08-03T03:05:13.672Z,6.47
2018-08-03T03:07:42.923Z,6.40
2018-08-03T03:10:12.133Z,5.60
2018-08-03T03:12:41.624Z,6.17
2018-08-03T03:15:10.871Z,5.80
2018-08-03T03:17:41.170Z,6.70
2018-08-03T03:20:10.404Z,6.43
2018-08-03T03:22:39.733Z,6.30
2018-08-03T03:25:08.970Z,5.93
2018-08-03T03:27:38.607Z,5.90
2018-08-03T03:30:08.686Z,6.30
2018-08-03T03:32:38.067Z,6.27
2018-08-03T03:35:07.447Z,6.30
2018-08-03T03:37:38.059Z,7.20
2018-08-03T03:40:07.349Z,6.13
2018-08-03T03:42:37.036Z,6.30
2018-08-03T03:45:06.445Z,5.37
2018-08-03T03:47:35.714Z,6.70
2018-08-03T03:50:06.026Z,6.60
2018-08-03T03:52:35.490Z,6.33
2018-08-03T03:55:04.915Z,6.23
2018-08-03T03:57:35.808Z,6.10
2018-08-03T04:00:06.514Z,6.73
2018-08-03T04:02:35.899Z,6.90
2018-08-03T04:05:07.220Z,6.47
2018-08-03T04:07:36.409Z,6.40
2018-08-03T04:10:05.908Z,7.10
2018-08-03T04:12:35.273Z,5.37
2018-08-03T04:15:04.823Z,6.40
2018-08-03T04:17:34.152Z,6.77
2018-08-03T04:20:04.612Z,6.60
2018-08-03T04:22:33.977Z,6.10
2018-08-03T04:25:03.606Z,6.90
2018-08-03T04:27:33.423Z,6.67
2018-08-03T04:30:03.013Z,5.57
2018-08-03T04:32:32.211Z,6.20
2018-08-03T04:35:01.658Z,5.47
2018-08-03T04:37:31.029Z,5.50
2018-08-03T04:40:00.420Z,5.97
2018-08-03T04:42:29.696Z,5.40
2018-08-03T04:44:58.934Z,6.40
2018-08-03T04:47:28.214Z,6.13
2018-08-03T04:49:57.844Z,6.30
2018-08-03T04:52:27.087Z,6.50
2018-08-03T04:54:56.409Z,6.20
2018-08-03T04:57:25.996Z,7.07
2018-08-03T04:59:55.221Z,6.17
2018-08-03T05:02:24.707Z,6.90
2018-08-03T05:04:54.828Z,6.23
2018-08-03T05:07:24.073Z,6.60
2018-08-03T05:09:53.739Z,7.10
2018-08-03T05:12:23.111Z,6.90
2018-08-03T05:14:52.441Z,6.60
2018-08-03T05:17:21.858Z,5.90
2018-08-03T05:19:51.662Z,7.10
2018-08-03T05:22:21.125Z,5.90
2018-08-03T05:24:50.588Z,9.20
2018-08-03T05:27:20.103Z,7.73
2018-08-03T05:29:49.675Z,6.87
2018-08-03T05:32:19.030Z,8.37
2018-08-03T05:34:48.377Z,7.17
2018-08-03T05:37:17.784Z,6.63
2018-08-03T05:39:47.210Z,6.77
2018-08-03T05:42:16.518Z,6.63
2018-08-03T05:44:45.925Z,7.40
2018-08-03T05:47:16.015Z,5.93
2018-08-03T05:49:45.763Z,6.40
2018-08-03T05:52:15.092Z,5.50
2018-08-03T05:54:45.444Z,6.20
2018-08-03T05:57:14.946Z,6.17
2018-08-03T05:59:44.456Z,6.60
2018-08-03T06:02:13.786Z,5.17
2018-08-03T06:04:43.067Z,5.43
2018-08-03T06:07:12.285Z,5.80
2018-08-03T06:09:41.477Z,6.17
2018-08-03T06:12:10.823Z,5.90
2018-08-03T06:14:40.088Z,6.40
2018-08-03T06:17:09.294Z,4.70
2018-08-03T06:19:39.867Z,5.27
2018-08-03T06:22:09.125Z,5.50
2018-08-03T06:24:38.409Z,4.73
2018-08-03T06:27:08.565Z,6.87
2018-08-03T06:29:37.755Z,6.07
2018-08-03T06:32:07.094Z,5.33
2018-08-03T06:34:36.517Z,4.83
2018-08-03T06:37:06.563Z,4.87
2018-08-03T06:39:36.270Z,5.00
2018-08-03T06:42:05.664Z,5.20
2018-08-03T06:44:35.084Z,5.60
2018-08-03T06:47:04.475Z,4.80
2018-08-03T06:49:34.564Z,5.30
2018-08-03T06:52:04.165Z,6.33
2018-08-03T06:54:33.715Z,6.30
2018-08-03T06:57:03.677Z,6.33
2018-08-03T06:59:32.972Z,7.27
2018-08-03T07:02:02.512Z,5.50
2018-08-03T07:04:32.286Z,5.43
2018-08-03T07:07:02.773Z,5.57
2018-08-03T07:09:32.346Z,6.00
2018-08-03T07:12:01.571Z,6.43
2018-08-03T07:14:30.890Z,5.93
2018-08-03T07:17:00.706Z,5.37
2018-08-03T07:19:30.996Z,5.13
2018-08-03T07:22:00.199Z,6.97
2018-08-03T07:24:29.513Z,8.17
2018-08-03T07:26:58.815Z,4.67
2018-08-03T07:29:28.025Z,4.40
2018-08-03T07:31:57.241Z,4.60
2018-08-03T07:34:27.835Z,3.97
2018-08-03T07:36:57.190Z,4.30
2018-08-03T07:39:26.389Z,4.57
2018-08-03T07:41:55.964Z,3.50
2018-08-03T07:44:25.338Z,4.37
2018-08-03T07:46:54.694Z,3.63
2018-08-03T07:49:24.108Z,3.47
2018-08-03T07:51:53.585Z,3.60
2018-08-03T07:54:23.056Z,6.77
2018-08-03T07:56:52.651Z,3.40
2018-08-03T07:59:22.512Z,3.17
2018-08-03T08:01:54.962Z,3.33
2018-08-03T08:04:27.062Z,3.30
2018-08-03T08:06:56.476Z,3.47
2018-08-03T08:09:25.926Z,3.77
2018-08-03T08:11:55.358Z,3.63
2018-08-03T08:14:25.527Z,3.70
2018-08-03T08:16:55.910Z,3.60
2018-08-03T08:19:25.177Z,3.40
2018-08-03T08:21:55.658Z,3.70
2018-08-03T08:24:24.861Z,4.17
2018-08-03T08:26:54.640Z,3.43
2018-08-03T08:29:24.323Z,4.07
2018-08-03T08:31:53.709Z,4.13
2018-08-03T08:34:23.211Z,3.43
2018-08-03T08:36:52.769Z,4.80
2018-08-03T08:39:22.580Z,4.13
2018-08-03T08:41:52.016Z,4.70
2018-08-03T08:44:21.508Z,3.97
2018-08-03T08:46:51.170Z,3.70
2018-08-03T08:49:20.767Z,4.73
2018-08-03T08:51:50.271Z,4.10
2018-08-03T08:54:19.759Z,4.63
2018-08-03T08:56:50.364Z,3.73
2018-08-03T08:59:19.941Z,4.50
2018-08-03T09:01:49.877Z,4.70
2018-08-03T09:04:21.244Z,4.30
2018-08-03T09:06:50.472Z,4.60
2018-08-03T09:09:20.301Z,5.23
2018-08-03T09:11:49.856Z,5.30
2018-08-03T09:14:19.606Z,5.00
2018-08-03T09:16:49.109Z,4.30
2018-08-03T09:19:19.793Z,4.93
2018-08-03T09:21:50.351Z,5.00
2018-08-03T09:24:27.478Z,5.97
2018-08-03T09:26:57.828Z,5.40
2018-08-03T09:29:28.037Z,5.77
2018-08-03T09:31:57.385Z,5.00
2018-08-03T09:34:27.245Z,5.57
2018-08-03T09:36:56.532Z,4.90
2018-08-03T09:39:25.818Z,6.17
2018-08-03T09:41:55.124Z,5.80
2018-08-03T09:44:24.461Z,4.77
2018-08-03T09:46:53.934Z,4.70
2018-08-03T09:49:23.719Z,5.60
2018-08-03T09:51:53.239Z,5.10
2018-08-03T09:54:22.708Z,5.00
2018-08-03T09:56:52.995Z,5.07
2018-08-03T09:59:22.706Z,5.67
2018-08-03T10:01:52.242Z,5.73
2018-08-03T10:04:21.806Z,5.17
2018-08-03T10:06:51.858Z,5.53
2018-08-03T10:09:21.239Z,5.50
2018-08-03T10:11:51.894Z,5.50
2018-08-03T10:14:21.389Z,5.47
2018-08-03T10:16:50.939Z,5.20
2018-08-03T10:19:20.539Z,5.93
2018-08-03T10:21:49.983Z,5.40
2018-08-03T10:24:19.631Z,5.17
2018-08-03T10:26:49.125Z,6.00
2018-08-03T10:29:19.423Z,5.90
2018-08-03T10:31:48.857Z,5.67
2018-08-03T10:34:18.380Z,7.00
2018-08-03T10:36:47.870Z,5.30
2018-08-03T10:39:17.606Z,6.17
2018-08-03T10:41:47.256Z,5.60
2018-08-03T10:44:17.729Z,5.70
2018-08-03T10:46:47.293Z,5.23
2018-08-03T10:49:17.068Z,5.80
2018-08-03T10:51:46.771Z,6.70
2018-08-03T10:54:16.785Z,5.70
2018-08-03T10:56:46.175Z,6.47
2018-08-03T10:59:16.534Z,5.80
2018-08-03T11:01:46.389Z,6.67
2018-08-03T11:04:16.521Z,6.37
2018-08-03T11:06:47.827Z,6.70
2018-08-03T11:09:17.659Z,7.13
2018-08-03T11:11:47.286Z,5.77
2018-08-03T11:14:17.010Z,7.97
2018-08-03T11:16:47.961Z,6.53
2018-08-03T11:19:17.760Z,7.20
2018-08-03T11:21:48.690Z,6.53
2018-08-03T11:24:18.296Z,6.30
2018-08-03T11:26:47.988Z,6.10
2018-08-03T11:29:18.305Z,6.57
2018-08-03T11:31:47.732Z,6.30
2018-08-03T11:34:17.477Z,6.30
2018-08-03T11:36:47.568Z,5.77
2018-08-03T11:39:16.988Z,6.20
2018-08-03T11:41:46.269Z,4.47
2018-08-03T11:44:16.362Z,3.77
2018-08-03T11:46:46.050Z,4.53
2018-08-03T11:49:15.609Z,3.93
2018-08-03T11:51:45.495Z,4.07
2018-08-03T11:54:15.478Z,4.17
2018-08-03T11:56:44.775Z,4.40
2018-08-03T11:59:14.241Z,3.50
2018-08-03T12:01:43.602Z,5.23
2018-08-03T12:04:12.969Z,4.70
2018-08-03T12:06:43.458Z,3.60
2018-08-03T12:09:13.942Z,5.00
2018-08-03T12:11:43.250Z,4.30
2018-08-03T12:14:12.999Z,3.70
2018-08-03T12:16:43.090Z,5.53
2018-08-03T12:19:12.346Z,4.50
2018-08-03T12:21:41.719Z,4.30
2018-08-03T12:24:10.976Z,3.20
2018-08-03T12:26:41.285Z,3.50
2018-08-03T12:29:10.646Z,4.30
2018-08-03T12:31:40.055Z,4.00
2018-08-03T12:34:09.314Z,4.03
2018-08-03T12:36:38.618Z,4.50
2018-08-03T12:39:09.225Z,4.87
2018-08-03T12:41:38.999Z,3.57
2018-08-03T12:44:08.539Z,4.20
2018-08-03T12:46:37.727Z,4.00
2018-08-03T12:49:08.004Z,4.10
2018-08-03T12:51:37.317Z,4.80
2018-08-03T12:54:06.547Z,4.53
2018-08-03T12:56:36.806Z,4.40
2018-08-03T12:59:06.001Z,4.13
2018-08-03T13:01:35.269Z,4.13
2018-08-03T13:04:05.792Z,3.77
2018-08-03T13:06:35.069Z,3.83
2018-08-03T13:09:06.703Z,3.70
2018-08-03T13:11:35.873Z,3.57
2018-08-03T13:14:05.132Z,4.37
2018-08-03T13:16:34.506Z,4.10
2018-08-03T13:19:03.773Z,4.10
2018-08-03T13:21:37.935Z,4.40
2018-08-03T13:24:07.467Z,4.00
2018-08-03T13:26:36.878Z,4.23
2018-08-03T13:29:06.648Z,4.00
2018-08-03T13:31:36.037Z,3.83
2018-08-03T13:34:05.383Z,4.07
2018-08-03T13:36:34.669Z,3.73
2018-08-03T13:39:05.934Z,3.57
2018-08-03T13:41:36.480Z,3.90
2018-08-03T13:44:09.931Z,3.63
2018-08-03T13:46:40.523Z,3.23
2018-08-03T13:49:10.710Z,3.77
2018-08-03T13:51:39.977Z,4.10
2018-08-03T13:54:09.900Z,4.17
2018-08-03T13:56:39.121Z,3.83
2018-08-03T13:59:08.325Z,4.83
2018-08-03T14:01:51.607Z,3.67
2018-08-03T14:04:21.066Z,4.07
2018-08-03T14:06:50.381Z,3.97
2018-08-03T14:09:20.347Z,3.57
2018-08-03T14:11:49.701Z,4.13
2018-08-03T14:14:19.154Z,3.63
2018-08-03T14:16:49.815Z,3.77
2018-08-03T14:19:19.104Z,3.70
2018-08-03T14:21:48.640Z,4.87
2018-08-03T14:24:19.585Z,4.13
2018-08-03T14:26:49.040Z,4.37
2018-08-03T14:29:18.448Z,4.13
2018-08-03T14:31:48.485Z,4.00
2018-08-03T14:34:17.761Z,3.53
2018-08-03T14:36:48.512Z,4.50
2018-08-03T14:39:18.048Z,4.47
2018-08-03T14:41:48.869Z,4.83
2018-08-03T14:44:18.433Z,4.30
2018-08-03T14:46:49.792Z,4.60
2018-08-03T14:49:19.303Z,4.80
2018-08-03T14:51:51.537Z,4.00
2018-08-03T14:54:25.618Z,4.13
2018-08-03T14:56:54.919Z,3.90
2018-08-03T14:59:29.608Z,4.57
2018-08-03T15:02:02.800Z,4.47
2018-08-03T15:04:32.211Z,4.93
2018-08-03T15:07:01.492Z,4.53
2018-08-03T15:09:30.794Z,5.40
2018-08-03T15:12:00.069Z,5.20
2018-08-03T15:14:30.219Z,4.10
2018-08-03T15:16:59.456Z,4.07
2018-08-03T15:19:28.828Z,4.30
2018-08-03T15:21:58.278Z,3.47
2018-08-03T15:24:27.605Z,4.37
2018-08-03T15:26:57.853Z,4.10
2018-08-03T15:29:27.103Z,4.40
2018-08-03T15:31:56.451Z,4.50
2018-08-03T15:34:26.269Z,4.07
2018-08-03T15:36:56.620Z,5.13
2018-08-03T15:39:27.389Z,4.83
2018-08-03T15:41:56.666Z,3.70
2018-08-03T15:44:26.187Z,3.83
2018-08-03T15:46:55.607Z,4.00
2018-08-03T15:49:25.153Z,4.00
2018-08-03T15:51:57.265Z,4.60
2018-08-03T15:54:26.638Z,4.43
2018-08-03T15:56:56.120Z,4.20
2018-08-03T15:59:26.015Z,4.07
2018-08-03T16:01:55.384Z,4.00
2018-08-03T16:04:24.859Z,5.27
2018-08-03T16:06:54.316Z,4.70
2018-08-03T16:09:23.840Z,3.47
2018-08-03T16:11:53.246Z,4.67
2018-08-03T16:14:23.895Z,4.43
2018-08-03T16:16:53.386Z,4.00
2018-08-03T16:19:22.867Z,3.73
2018-08-03T16:21:52.513Z,4.87
2018-08-03T16:24:21.990Z,4.23
2018-08-03T16:26:52.008Z,4.70
2018-08-03T16:29:21.408Z,4.00
2018-08-03T16:31:50.861Z,4.33
2018-08-03T16:34:20.339Z,4.93
2018-08-03T16:36:50.396Z,4.93
2018-08-03T16:39:19.988Z,4.03
2018-08-03T16:41:49.505Z,5.27
2018-08-03T16:44:19.100Z,4.07
2018-08-03T16:46:48.480Z,3.73
2018-08-03T16:49:18.081Z,4.03
2018-08-03T16:51:47.684Z,3.40
2018-08-03T16:54:17.728Z,3.87
2018-08-03T16:56:47.354Z,4.60
2018-08-03T16:59:17.423Z,3.87
2018-08-03T17:01:47.216Z,4.47
2018-08-03T17:04:16.652Z,4.17
2018-08-03T17:06:47.295Z,3.23
2018-08-03T17:09:16.793Z,3.87
2018-08-03T17:11:47.043Z,3.03
2018-08-03T17:14:17.695Z,2.53
2018-08-03T17:16:47.644Z,3.00
2018-08-03T17:19:17.400Z,3.20
2018-08-03T17:21:48.254Z,2.53
2018-08-03T17:24:17.765Z,4.17
2018-08-03T17:26:48.467Z,4.07
2018-08-03T17:29:18.151Z,5.20
2018-08-03T17:31:48.467Z,4.17
2018-08-03T17:34:18.367Z,3.87
2018-08-03T17:36:50.054Z,4.50
2018-08-03T17:39:22.682Z,4.30
2018-08-03T17:41:53.223Z,4.30
2018-08-03T17:44:24.088Z,3.90
2018-08-03T17:46:56.177Z,3.53
2018-08-03T17:49:25.938Z,3.60
2018-08-03T17:51:55.400Z,3.93
2018-08-03T17:54:34.109Z,3.90
2018-08-03T17:57:03.967Z,3.83
2018-08-03T17:59:34.165Z,4.00
2018-08-03T18:02:03.993Z,3.60
2018-08-03T18:04:34.838Z,3.30
2018-08-03T18:07:04.410Z,3.70
2018-08-03T18:09:33.845Z,3.90
2018-08-03T18:12:03.266Z,4.40
2018-08-03T18:14:32.697Z,3.37
2018-08-03T18:17:02.496Z,3.30
2018-08-03T18:19:31.767Z,4.10
2018-08-03T18:22:01.642Z,4.20
2018-08-03T18:24:31.864Z,5.50
2018-08-03T18:27:01.195Z,5.00
2018-08-03T18:29:30.860Z,5.10
2018-08-03T18:32:00.165Z,4.63
2018-08-03T18:34:29.418Z,4.27
2018-08-03T18:36:59.155Z,4.30
2018-08-03T18:39:28.450Z,4.77
2018-08-03T18:41:57.701Z,4.70
2018-08-03T18:44:27.701Z,3.13
2018-08-03T18:46:56.975Z,3.90
2018-08-03T18:49:26.268Z,3.50
2018-08-03T18:51:55.884Z,3.33
2018-08-03T18:54:25.250Z,4.27
2018-08-03T18:56:54.740Z,4.50
2018-08-03T18:59:24.283Z,3.30
2018-08-03T19:01:53.665Z,3.83
2018-08-03T19:04:23.097Z,3.20
2018-08-03T19:06:52.552Z,3.37
2018-08-03T19:09:22.397Z,3.30
2018-08-03T19:11:52.577Z,4.57
2018-08-03T19:14:22.040Z,4.73
2018-08-03T19:16:51.570Z,4.00
2018-08-03T19:19:20.946Z,3.30
2018-08-03T19:21:50.635Z,4.23
2018-08-03T19:24:20.025Z,3.73
2018-08-03T19:26:49.389Z,3.90
2018-08-03T19:29:18.828Z,3.47
2018-08-03T19:31:48.238Z,4.07
2018-08-03T19:34:18.040Z,4.40
2018-08-03T19:36:49.275Z,4.70
2018-08-03T19:39:18.682Z,3.93
2018-08-03T19:41:48.348Z,6.87
2018-08-03T19:44:18.817Z,5.17
2018-08-03T19:46:48.744Z,4.20
2018-08-03T19:49:18.070Z,3.57
2018-08-03T19:51:48.770Z,5.47
2018-08-03T19:54:18.511Z,3.70
2018-08-03T19:56:47.995Z,4.60
2018-08-03T19:59:18.575Z,4.37
2018-08-03T20:01:48.048Z,3.43
2018-08-03T20:04:17.677Z,3.50
2018-08-03T20:06:48.302Z,4.23
2018-08-03T20:09:18.921Z,3.50
2018-08-03T20:11:49.777Z,3.70
2018-08-03T20:14:20.307Z,3.73
2018-08-03T20:16:49.997Z,3.70
2018-08-03T20:19:19.730Z,4.10
2018-08-03T20:21:49.658Z,3.80
2018-08-03T20:24:19.909Z,3.33
2018-08-03T20:26:51.606Z,3.40
2018-08-03T20:29:24.488Z,3.90
2018-08-03T20:31:55.351Z,4.00
2018-08-03T20:34:25.278Z,3.63
2018-08-03T20:36:54.987Z,3.37
2018-08-03T20:39:25.327Z,3.77
2018-08-03T20:41:56.006Z,4.07
2018-08-03T20:44:26.036Z,4.37
2018-08-03T20:46:56.363Z,2.90
2018-08-03T20:49:25.980Z,3.07
2018-08-03T20:51:56.674Z,2.60
2018-08-03T20:54:26.693Z,2.40
2018-08-03T20:56:56.102Z,2.80
2018-08-03T20:59:26.294Z,3.17
2018-08-03T21:01:56.772Z,3.53
2018-08-03T21:04:27.140Z,2.40
2018-08-03T21:06:57.629Z,2.73
2018-08-03T21:09:28.534Z,3.30
2018-08-03T21:11:59.928Z,2.50
2018-08-03T21:14:30.573Z,3.17
2018-08-03T21:17:00.161Z,2.93
2018-08-03T21:19:29.558Z,4.40
2018-08-03T21:21:59.509Z,3.23
2018-08-03T21:24:30.014Z,2.67
2018-08-03T21:26:59.275Z,4.03
2018-08-03T21:29:29.748Z,3.03
2018-08-03T21:31:59.404Z,2.47
2018-08-03T21:34:28.728Z,2.50
2018-08-03T21:36:58.154Z,2.50
2018-08-03T21:39:27.816Z,2.40
2018-08-03T21:41:57.590Z,2.10
2018-08-03T21:44:30.222Z,2.23
2018-08-03T21:46:59.885Z,2.60
2018-08-03T21:49:29.951Z,2.50
2018-08-03T21:52:00.092Z,2.27
2018-08-03T21:54:30.368Z,2.30
2018-08-03T21:57:00.378Z,1.93
2018-08-03T21:59:30.770Z,2.57
2018-08-03T22:02:10.401Z,2.17
2018-08-03T22:04:39.855Z,3.00
2018-08-03T22:07:13.295Z,2.07
2018-08-03T22:09:45.564Z,2.00
2018-08-03T22:12:16.520Z,2.27
2018-08-03T22:14:51.442Z,1.90
2018-08-03T22:17:25.374Z,1.97
2018-08-03T22:19:58.240Z,1.93
2018-08-03T22:22:27.677Z,1.90
2018-08-03T22:25:00.373Z,2.00
2018-08-03T22:27:31.135Z,1.83
2018-08-03T22:30:00.891Z,1.77
2018-08-03T22:32:31.466Z,1.67
2018-08-03T22:35:04.126Z,2.27
2018-08-03T22:37:34.115Z,1.70
2018-08-03T22:40:07.198Z,1.60
2018-08-03T22:42:38.766Z,1.47
2018-08-03T22:45:10.262Z,1.87
2018-08-03T22:47:40.764Z,2.10
2018-08-03T22:50:13.985Z,1.70
2018-08-03T22:52:48.668Z,1.60
2018-08-03T22:55:19.568Z,1.80
2018-08-03T22:57:57.348Z,1.93
2018-08-03T23:00:30.619Z,1.70
2018-08-03T23:03:04.971Z,1.63
2018-08-03T23:05:36.139Z,1.73
2018-08-03T23:08:05.939Z,1.77
2018-08-03T23:10:36.207Z,1.67
2018-08-03T23:13:06.304Z,1.60
2018-08-03T23:15:36.025Z,1.83
2018-08-03T23:18:05.651Z,1.70
2018-08-03T23:20:35.833Z,1.60
2018-08-03T23:23:05.143Z,1.60
2018-08-03T23:25:35.484Z,1.80
2018-08-03T23:28:04.987Z,1.50
2018-08-03T23:30:34.384Z,1.60
2018-08-03T23:33:03.641Z,1.50
2018-08-03T23:35:34.518Z,1.70
2018-08-03T23:38:04.931Z,1.80
2018-08-03T23:40:34.201Z,2.30
2018-08-03T23:43:03.696Z,1.63
2018-08-03T23:45:32.877Z,2.17
2018-08-03T23:48:02.321Z,1.50
2018-08-03T23:50:31.643Z,1.67
2018-08-03T23:53:00.973Z,2.27
2018-08-03T23:55:30.228Z,1.67
2018-08-03T23:58:00.366Z,1.63
